createdAt,value
2022-08-28T00:00:06.465Z,31.65
2022-08-28T00:02:55.400Z,31.67
2022-08-28T00:05:40.626Z,31.61
2022-08-28T00:08:29.461Z,31.67
2022-08-28T00:11:12.736Z,31.66
2022-08-28T00:14:01.519Z,31.53
2022-08-28T00:16:44.617Z,31.64
2022-08-28T00:19:36.688Z,31.65
2022-08-28T00:22:27.316Z,31.62
2022-08-28T00:25:26.396Z,31.60
2022-08-28T00:28:24.092Z,31.64
2022-08-28T00:31:14.509Z,31.56
2022-08-28T00:34:03.478Z,31.57
2022-08-28T00:36:53.390Z,31.61
2022-08-28T00:39:35.752Z,31.63
2022-08-28T00:42:25.445Z,31.48
2022-08-28T00:45:14.732Z,31.40
2022-08-28T00:47:56.485Z,31.52
2022-08-28T00:51:03.531Z,31.54
2022-08-28T00:53:45.725Z,31.56
2022-08-28T00:56:35.516Z,31.60
2022-08-28T00:59:20.786Z,31.61
2022-08-28T01:02:09.356Z,31.58
2022-08-28T01:04:52.668Z,31.64
2022-08-28T01:07:41.378Z,31.71
2022-08-28T01:10:28.726Z,31.66
2022-08-28T01:13:17.465Z,31.70
2022-08-28T01:16:00.863Z,31.67
2022-08-28T01:18:51.529Z,31.66
2022-08-28T01:21:55.744Z,31.73
2022-08-28T01:24:46.379Z,31.67
2022-08-28T01:27:28.796Z,31.77
2022-08-28T01:30:21.459Z,31.83
2022-08-28T01:33:05.309Z,31.92
2022-08-28T01:35:55.393Z,31.94
2022-08-28T01:38:44.354Z,31.76
2022-08-28T01:41:33.499Z,31.79
2022-08-28T01:44:15.753Z,31.68
2022-08-28T01:47:07.439Z,31.89
2022-08-28T01:49:50.375Z,31.86
2022-08-28T01:52:39.439Z,31.94
2022-08-28T01:55:21.804Z,31.86
2022-08-28T01:58:04.388Z,31.99
2022-08-28T02:00:54.176Z,31.98
2022-08-28T02:03:37.661Z,32.06
2022-08-28T02:06:20.393Z,31.95
2022-08-28T02:09:13.482Z,32.07
2022-08-28T02:12:02.724Z,32.27
2022-08-28T02:14:46.405Z,32.37
2022-08-28T02:17:28.647Z,32.36
2022-08-28T02:20:19.362Z,32.64
2022-08-28T02:23:15.364Z,33.39
2022-08-28T02:26:10.368Z,33.99
2022-08-28T02:28:52.548Z,34.26
2022-08-28T02:31:42.514Z,34.17
2022-08-28T02:34:30.642Z,34.06
2022-08-28T02:37:15.467Z,33.90
2022-08-28T02:39:58.986Z,33.60
2022-08-28T02:42:47.441Z,33.49
2022-08-28T02:45:35.613Z,33.22
2022-08-28T02:48:17.670Z,33.41
2022-08-28T02:51:09.417Z,33.57
2022-08-28T02:53:51.481Z,33.09
2022-08-28T02:56:39.730Z,33.35
2022-08-28T02:59:21.453Z,33.21
2022-08-28T03:02:10.676Z,33.46
2022-08-28T03:04:53.364Z,33.51
2022-08-28T03:07:42.520Z,33.41
2022-08-28T03:10:26.196Z,33.41
2022-08-28T03:13:27.155Z,33.61
2022-08-28T03:16:09.603Z,33.25
2022-08-28T03:18:58.458Z,33.67
2022-08-28T03:21:40.623Z,33.55
2022-08-28T03:24:29.454Z,33.63
2022-08-28T03:27:12.710Z,33.81
2022-08-28T03:30:01.459Z,33.91
2022-08-28T03:32:44.645Z,33.90
2022-08-28T03:35:33.470Z,33.81
2022-08-28T03:38:15.784Z,33.73
2022-08-28T03:41:04.389Z,33.90
2022-08-28T03:43:54.420Z,34.09
2022-08-28T03:46:44.381Z,33.88
2022-08-28T03:49:33.469Z,34.11
2022-08-28T03:52:15.456Z,34.01
2022-08-28T03:55:04.348Z,34.44
2022-08-28T03:57:46.896Z,34.47
2022-08-28T04:00:35.477Z,34.44
2022-08-28T04:03:18.005Z,34.26
2022-08-28T04:06:06.464Z,34.12
2022-08-28T04:08:59.943Z,34.65
2022-08-28T04:11:54.356Z,34.86
2022-08-28T04:14:44.457Z,34.40
2022-08-28T04:17:27.508Z,34.94
2022-08-28T04:20:18.366Z,35.10
2022-08-28T04:23:11.425Z,35.22
2022-08-28T04:26:06.380Z,35.22
2022-08-28T04:29:02.337Z,35.12
2022-08-28T04:31:57.543Z,35.43
2022-08-28T04:34:47.457Z,35.82
2022-08-28T04:37:36.468Z,36.15
2022-08-28T04:40:18.576Z,36.12
2022-08-28T04:43:07.448Z,36.56
2022-08-28T04:45:49.676Z,36.75
2022-08-28T04:48:38.494Z,36.76
2022-08-28T04:51:21.394Z,36.89
2022-08-28T04:54:11.435Z,37.05
2022-08-28T04:57:00.474Z,36.36
2022-08-28T04:59:52.471Z,36.81
2022-08-28T05:02:34.730Z,36.55
2022-08-28T05:05:23.474Z,36.73
2022-08-28T05:08:05.485Z,37.02
2022-08-28T05:10:55.453Z,36.83
2022-08-28T05:13:44.444Z,36.92
2022-08-28T05:16:27.790Z,36.91
2022-08-28T05:19:16.446Z,37.20
2022-08-28T05:21:59.776Z,36.84
2022-08-28T05:24:48.455Z,37.14
2022-08-28T05:27:30.719Z,37.44
2022-08-28T05:30:26.471Z,37.40
2022-08-28T05:33:31.296Z,36.70
2022-08-28T05:36:20.445Z,36.50
2022-08-28T05:39:06.702Z,36.59
2022-08-28T05:41:55.439Z,36.69
2022-08-28T05:44:37.719Z,36.68
2022-08-28T05:47:26.431Z,37.40
2022-08-28T05:50:09.883Z,37.24
2022-08-28T05:52:58.441Z,36.92
2022-08-28T05:55:40.790Z,36.17
2022-08-28T05:58:39.445Z,36.19
2022-08-28T06:01:29.588Z,36.13
2022-08-28T06:04:22.499Z,36.86
2022-08-28T06:07:11.447Z,37.41
2022-08-28T06:09:53.741Z,37.30
2022-08-28T06:12:42.441Z,37.67
2022-08-28T06:15:24.725Z,37.56
2022-08-28T06:18:13.608Z,37.75
2022-08-28T06:21:03.698Z,37.52
2022-08-28T06:23:45.470Z,37.31
2022-08-28T06:26:34.897Z,37.22
2022-08-28T06:29:21.094Z,37.32
2022-08-28T06:32:18.347Z,37.12
2022-08-28T06:35:07.475Z,37.52
2022-08-28T06:37:49.866Z,37.66
2022-08-28T06:40:38.439Z,37.32
2022-08-28T06:43:21.719Z,37.25
2022-08-28T06:46:11.484Z,37.32
2022-08-28T06:48:54.383Z,37.52
2022-08-28T06:51:43.435Z,38.07
2022-08-28T06:54:32.378Z,37.26
2022-08-28T06:57:21.398Z,37.26
2022-08-28T07:00:04.728Z,37.20
2022-08-28T07:02:52.570Z,37.21
2022-08-28T07:05:35.046Z,37.38
2022-08-28T07:08:23.484Z,37.38
2022-08-28T07:11:05.923Z,37.79
2022-08-28T07:13:54.493Z,37.54
2022-08-28T07:16:40.708Z,37.27
2022-08-28T07:19:29.345Z,37.46
2022-08-28T07:22:11.696Z,37.69
2022-08-28T07:25:02.445Z,37.76
2022-08-28T07:27:45.669Z,38.13
2022-08-28T07:30:34.358Z,37.92
2022-08-28T07:33:29.492Z,37.46
2022-08-28T07:36:29.332Z,37.76
2022-08-28T07:39:20.366Z,37.78
2022-08-28T07:42:09.441Z,37.30
2022-08-28T07:44:58.358Z,37.27
2022-08-28T07:47:40.755Z,37.70
2022-08-28T07:50:29.501Z,37.56
2022-08-28T07:53:11.743Z,37.36
2022-08-28T07:56:01.328Z,37.71
2022-08-28T07:58:49.759Z,37.80
2022-08-28T08:01:32.464Z,37.58
2022-08-28T08:04:23.456Z,37.48
2022-08-28T08:07:05.775Z,37.41
2022-08-28T08:09:54.431Z,37.69
2022-08-28T08:12:46.394Z,37.92
2022-08-28T08:15:34.699Z,37.61
2022-08-28T08:18:17.350Z,37.65
2022-08-28T08:21:13.220Z,37.89
2022-08-28T08:23:56.463Z,37.30
2022-08-28T08:26:39.026Z,37.67
2022-08-28T08:29:28.440Z,37.38
2022-08-28T08:32:12.893Z,37.19
2022-08-28T08:35:10.363Z,37.44
2022-08-28T08:38:06.367Z,37.48
2022-08-28T08:41:03.537Z,37.46
2022-08-28T08:44:08.292Z,37.83
2022-08-28T08:47:24.565Z,37.30
2022-08-28T08:50:41.288Z,37.31
2022-08-28T08:54:17.356Z,37.10
2022-08-28T08:57:02.791Z,36.61
2022-08-28T08:59:51.358Z,36.77
2022-08-28T09:02:41.616Z,36.55
2022-08-28T09:05:41.482Z,37.09
2022-08-28T09:08:40.448Z,37.30
2022-08-28T09:11:56.465Z,36.78
2022-08-28T09:15:17.501Z,36.98
2022-08-28T09:18:15.218Z,37.22
2022-08-28T09:21:07.514Z,37.48
2022-08-28T09:23:49.674Z,37.42
2022-08-28T09:26:39.463Z,37.21
2022-08-28T09:29:35.419Z,37.04
2022-08-28T09:32:30.805Z,37.01
2022-08-28T09:35:37.488Z,37.17
2022-08-28T09:38:29.779Z,37.15
2022-08-28T09:41:37.366Z,37.11
2022-08-28T09:44:22.884Z,36.73
2022-08-28T09:47:11.436Z,36.90
2022-08-28T09:50:00.504Z,37.16
2022-08-28T09:52:50.098Z,37.10
2022-08-28T09:55:45.520Z,37.45
2022-08-28T09:58:44.032Z,37.09
2022-08-28T10:01:57.537Z,36.71
2022-08-28T10:05:08.557Z,37.17
2022-08-28T10:08:00.491Z,37.31
2022-08-28T10:10:54.587Z,37.12
2022-08-28T10:13:54.537Z,36.70
2022-08-28T10:17:02.936Z,36.77
2022-08-28T10:20:09.474Z,36.50
2022-08-28T10:23:19.538Z,36.88
2022-08-28T10:26:21.936Z,36.72
2022-08-28T10:29:16.525Z,36.80
2022-08-28T10:32:04.736Z,36.53
2022-08-28T10:35:12.462Z,36.16
2022-08-28T10:38:16.875Z,35.56
2022-08-28T10:41:14.555Z,35.27
2022-08-28T10:43:59.767Z,34.50
2022-08-28T10:46:57.482Z,34.41
2022-08-28T10:50:09.526Z,34.20
2022-08-28T10:53:18.360Z,33.71
2022-08-28T10:56:18.519Z,33.88
2022-08-28T10:59:08.469Z,33.62
2022-08-28T11:01:53.847Z,33.00
2022-08-28T11:04:42.541Z,33.38
2022-08-28T11:07:48.813Z,33.49
2022-08-28T11:10:43.487Z,33.13
2022-08-28T11:13:55.950Z,33.08
2022-08-28T11:16:54.556Z,32.47
2022-08-28T11:19:56.492Z,32.71
2022-08-28T11:23:13.040Z,32.93
2022-08-28T11:26:06.401Z,32.95
2022-08-28T11:28:54.811Z,33.00
2022-08-28T11:31:42.345Z,33.00
2022-08-28T11:35:05.763Z,33.01
2022-08-28T11:37:53.378Z,32.88
2022-08-28T11:40:42.829Z,32.70
2022-08-28T11:43:25.476Z,33.05
2022-08-28T11:46:30.861Z,32.45
2022-08-28T11:49:35.488Z,33.02
2022-08-28T11:52:59.393Z,32.81
2022-08-28T11:56:30.492Z,33.11
2022-08-28T11:59:35.115Z,33.29
2022-08-28T12:02:47.854Z,33.14
2022-08-28T12:05:38.482Z,33.16
2022-08-28T12:08:41.778Z,33.23
2022-08-28T12:11:48.517Z,32.72
2022-08-28T12:14:34.383Z,32.74
2022-08-28T12:17:36.376Z,32.92
2022-08-28T12:20:32.091Z,33.30
2022-08-28T12:23:42.474Z,32.92
2022-08-28T12:26:31.186Z,32.89
2022-08-28T12:29:37.387Z,33.33
2022-08-28T12:32:45.769Z,33.45
2022-08-28T12:35:35.484Z,33.48
2022-08-28T12:38:26.938Z,33.47
2022-08-28T12:41:24.569Z,33.59
2022-08-28T12:44:16.362Z,33.50
2022-08-28T12:46:59.542Z,33.52
2022-08-28T12:49:51.438Z,33.62
2022-08-28T12:52:39.876Z,33.64
2022-08-28T12:55:24.450Z,33.44
2022-08-28T12:58:21.762Z,33.27
2022-08-28T13:01:07.662Z,33.27
2022-08-28T13:04:02.978Z,33.37
2022-08-28T13:06:46.432Z,33.37
2022-08-28T13:09:36.716Z,33.26
2022-08-28T13:12:54.290Z,33.28
2022-08-28T13:16:01.624Z,33.33
2022-08-28T13:18:46.937Z,33.27
2022-08-28T13:21:37.512Z,33.23
2022-08-28T13:24:28.747Z,33.24
2022-08-28T13:27:23.471Z,33.22
2022-08-28T13:30:36.922Z,33.30
2022-08-28T13:33:29.510Z,33.19
2022-08-28T13:36:35.490Z,33.26
2022-08-28T13:39:26.477Z,33.24
2022-08-28T13:42:20.800Z,33.28
2022-08-28T13:45:09.560Z,33.16
2022-08-28T13:47:58.478Z,33.18
2022-08-28T13:50:44.832Z,33.06
2022-08-28T13:53:35.547Z,33.06
2022-08-28T13:56:32.629Z,33.18
2022-08-28T13:59:27.577Z,33.14
2022-08-28T14:02:46.576Z,33.20
2022-08-28T14:05:36.499Z,33.18
2022-08-28T14:08:18.824Z,33.20
2022-08-28T14:11:07.488Z,33.14
2022-08-28T14:13:55.445Z,33.11
2022-08-28T14:16:45.465Z,32.97
2022-08-28T14:19:34.654Z,32.80
2022-08-28T14:22:22.855Z,33.00
2022-08-28T14:25:05.636Z,32.99
2022-08-28T14:27:53.868Z,33.21
2022-08-28T14:30:42.706Z,32.95
2022-08-28T14:33:30.993Z,33.02
2022-08-28T14:36:28.599Z,32.95
2022-08-28T14:39:13.585Z,33.03
2022-08-28T14:42:02.697Z,33.13
2022-08-28T14:44:45.852Z,33.18
2022-08-28T14:47:34.668Z,33.07
2022-08-28T14:50:22.935Z,32.81
2022-08-28T14:53:05.472Z,33.08
2022-08-28T14:55:56.977Z,33.14
2022-08-28T14:58:40.642Z,33.14
2022-08-28T15:01:47.624Z,32.97
2022-08-28T15:04:39.225Z,32.91
2022-08-28T15:07:23.496Z,32.95
2022-08-28T15:10:07.245Z,32.85
2022-08-28T15:12:56.617Z,32.88
2022-08-28T15:15:49.490Z,32.86
2022-08-28T15:18:31.890Z,32.87
2022-08-28T15:21:32.542Z,32.92
2022-08-28T15:24:15.886Z,32.92
2022-08-28T15:27:05.397Z,32.92
2022-08-28T15:29:47.817Z,32.84
2022-08-28T15:32:36.484Z,32.87
2022-08-28T15:35:18.884Z,32.88
2022-08-28T15:38:07.522Z,32.86
2022-08-28T15:41:08.286Z,32.86
2022-08-28T15:43:57.533Z,32.83
2022-08-28T15:46:42.982Z,32.82
2022-08-28T15:49:38.881Z,32.85
2022-08-28T15:52:30.871Z,32.74
2022-08-28T15:55:19.457Z,32.82
2022-08-28T15:58:02.754Z,32.71
2022-08-28T16:00:51.589Z,32.75
2022-08-28T16:03:47.309Z,32.81
2022-08-28T16:06:43.475Z,32.86
2022-08-28T16:09:25.808Z,32.57
2022-08-28T16:12:14.481Z,32.56
2022-08-28T16:14:57.305Z,32.61
2022-08-28T16:17:46.518Z,32.66
2022-08-28T16:20:34.719Z,32.56
2022-08-28T16:23:17.467Z,32.58
2022-08-28T16:26:06.768Z,32.43
2022-08-28T16:28:49.535Z,32.42
2022-08-28T16:31:31.627Z,32.43
2022-08-28T16:34:21.514Z,32.47
2022-08-28T16:37:10.863Z,32.55
2022-08-28T16:39:52.541Z,32.52
2022-08-28T16:42:42.602Z,32.55
2022-08-28T16:45:33.460Z,32.50
2022-08-28T16:48:16.774Z,32.48
2022-08-28T16:51:05.734Z,32.49
2022-08-28T16:53:53.780Z,32.41
2022-08-28T16:56:36.483Z,32.36
2022-08-28T16:59:28.491Z,32.34
2022-08-28T17:02:17.510Z,32.42
2022-08-28T17:05:01.550Z,32.37
2022-08-28T17:07:51.503Z,32.32
2022-08-28T17:10:47.527Z,32.44
2022-08-28T17:13:35.862Z,32.41
2022-08-28T17:16:18.618Z,32.43
2022-08-28T17:19:01.279Z,32.52
2022-08-28T17:22:09.509Z,32.42
2022-08-28T17:24:59.804Z,32.39
2022-08-28T17:27:42.485Z,32.52
2022-08-28T17:30:31.902Z,32.53
2022-08-28T17:33:14.503Z,32.51
2022-08-28T17:35:59.386Z,32.53
2022-08-28T17:38:52.487Z,32.52
2022-08-28T17:41:34.843Z,32.50
2022-08-28T17:44:23.450Z,32.52
2022-08-28T17:47:13.119Z,32.64
2022-08-28T17:49:56.463Z,32.48
2022-08-28T17:52:45.584Z,32.50
2022-08-28T17:55:28.015Z,32.47
2022-08-28T17:58:16.472Z,32.72
2022-08-28T18:01:07.475Z,32.63
2022-08-28T18:03:53.493Z,32.56
2022-08-28T18:06:42.677Z,32.55
2022-08-28T18:09:38.316Z,32.48
2022-08-28T18:12:34.488Z,32.43
2022-08-28T18:15:25.273Z,32.47
2022-08-28T18:18:08.472Z,32.40
2022-08-28T18:20:50.833Z,32.45
2022-08-28T18:23:43.460Z,32.48
2022-08-28T18:26:32.459Z,32.48
2022-08-28T18:29:22.381Z,32.42
2022-08-28T18:32:15.493Z,32.44
2022-08-28T18:34:57.882Z,32.41
2022-08-28T18:37:46.384Z,32.40
2022-08-28T18:40:33.845Z,32.47
2022-08-28T18:43:23.388Z,32.47
2022-08-28T18:46:15.502Z,32.53
2022-08-28T18:49:04.645Z,32.39
2022-08-28T18:51:49.551Z,32.46
2022-08-28T18:54:32.300Z,32.46
2022-08-28T18:57:21.473Z,32.52
2022-08-28T19:00:15.477Z,32.57
2022-08-28T19:02:58.191Z,32.30
2022-08-28T19:05:47.481Z,32.51
2022-08-28T19:08:36.570Z,32.53
2022-08-28T19:11:19.055Z,32.54
2022-08-28T19:14:08.465Z,32.48
2022-08-28T19:16:51.195Z,32.51
2022-08-28T19:19:41.482Z,32.55
2022-08-28T19:22:24.447Z,32.53
2022-08-28T19:25:28.851Z,32.60
2022-08-28T19:28:19.017Z,32.60
2022-08-28T19:31:01.486Z,32.52
2022-08-28T19:33:49.796Z,32.55
2022-08-28T19:36:34.492Z,32.50
2022-08-28T19:39:16.626Z,32.52
2022-08-28T19:42:06.384Z,32.37
2022-08-28T19:44:59.877Z,32.48
2022-08-28T19:47:43.460Z,32.44
2022-08-28T19:50:31.734Z,32.55
2022-08-28T19:53:14.455Z,32.39
2022-08-28T19:55:57.634Z,32.39
2022-08-28T19:58:47.477Z,32.42
2022-08-28T20:01:37.986Z,32.49
2022-08-28T20:04:26.377Z,32.43
2022-08-28T20:07:08.564Z,32.37
2022-08-28T20:09:57.477Z,32.34
2022-08-28T20:12:52.440Z,32.39
2022-08-28T20:15:41.861Z,32.50
2022-08-28T20:18:24.795Z,32.45
2022-08-28T20:21:14.379Z,32.33
2022-08-28T20:24:03.471Z,32.35
2022-08-28T20:26:45.593Z,32.32
2022-08-28T20:29:34.375Z,32.32
2022-08-28T20:32:22.743Z,32.35
2022-08-28T20:35:04.465Z,32.26
2022-08-28T20:37:46.675Z,32.22
2022-08-28T20:40:36.479Z,32.23
2022-08-28T20:43:18.571Z,32.15
2022-08-28T20:46:08.559Z,32.13
2022-08-28T20:48:50.557Z,32.15
2022-08-28T20:51:57.364Z,32.21
2022-08-28T20:54:47.747Z,32.18
2022-08-28T20:57:30.465Z,32.16
2022-08-28T21:00:20.874Z,32.05
2022-08-28T21:03:02.517Z,32.18
2022-08-28T21:05:47.700Z,32.13
2022-08-28T21:08:38.389Z,32.06
2022-08-28T21:11:34.365Z,32.18
2022-08-28T21:14:23.741Z,32.19
2022-08-28T21:17:06.424Z,32.33
2022-08-28T21:19:56.723Z,32.47
2022-08-28T21:22:39.380Z,32.43
2022-08-28T21:25:36.445Z,32.29
2022-08-28T21:28:21.802Z,32.33
2022-08-28T21:31:11.506Z,32.29
2022-08-28T21:34:00.460Z,32.28
2022-08-28T21:36:45.808Z,32.32
2022-08-28T21:39:37.473Z,32.43
2022-08-28T21:42:19.639Z,32.11
2022-08-28T21:45:12.008Z,31.80
2022-08-28T21:48:01.467Z,31.62
2022-08-28T21:50:52.457Z,31.26
2022-08-28T21:53:35.742Z,31.15
2022-08-28T21:56:34.450Z,31.15
2022-08-28T21:59:16.743Z,31.17
2022-08-28T22:02:06.441Z,30.96
2022-08-28T22:04:56.354Z,30.66
2022-08-28T22:07:46.761Z,30.52
2022-08-28T22:10:28.447Z,30.52
2022-08-28T22:13:24.472Z,30.59
2022-08-28T22:16:21.355Z,30.66
2022-08-28T22:19:11.509Z,30.62
2022-08-28T22:22:12.220Z,30.60
2022-08-28T22:25:01.753Z,30.71
2022-08-28T22:27:50.464Z,30.74
2022-08-28T22:30:39.492Z,30.57
2022-08-28T22:33:22.891Z,30.59
2022-08-28T22:36:12.344Z,30.55
2022-08-28T22:38:56.831Z,30.58
2022-08-28T22:41:45.345Z,30.37
2022-08-28T22:44:27.754Z,30.23
2022-08-28T22:47:16.492Z,29.79
2022-08-28T22:50:05.529Z,29.61
2022-08-28T22:52:56.448Z,29.56
2022-08-28T22:55:45.449Z,28.98
2022-08-28T22:58:28.955Z,28.92
2022-08-28T23:01:26.362Z,28.78
2022-08-28T23:04:15.539Z,28.78
2022-08-28T23:06:57.747Z,28.68
2022-08-28T23:09:46.334Z,28.50
2022-08-28T23:12:35.383Z,28.09
2022-08-28T23:15:27.450Z,28.09
2022-08-28T23:18:09.645Z,27.66
2022-08-28T23:20:58.360Z,27.46
2022-08-28T23:23:47.473Z,27.27
2022-08-28T23:26:29.657Z,27.34
2022-08-28T23:29:18.442Z,27.35
2022-08-28T23:32:01.172Z,27.49
2022-08-28T23:34:51.438Z,27.33
2022-08-28T23:37:34.032Z,27.48
2022-08-28T23:40:28.370Z,27.86
2022-08-28T23:43:18.469Z,28.18
2022-08-28T23:46:07.487Z,28.30
2022-08-28T23:48:49.988Z,28.14
2022-08-28T23:51:38.458Z,28.15
2022-08-28T23:54:20.559Z,28.21
2022-08-28T23:57:11.096Z,28.50
2022-08-28T23:59:53.613Z,28.54
